Time;durP1;ratioP1;P1;durP2;ratioP2;P2;SDS_P1;SDS_P2;PMS_P1;PMS_P2;Temp;Humidity;BMP_temperature;BMP_pressure;BME280_temperature;BME280_humidity;BME280_pressure;Samples;Min_cycle;Max_cycle;Signal;HPM_P1;HPM_P2
2021/09/22 00:01:25;;;;;;;0.52;0.50;;;22.80;53.90;;;;;;6292772;28;20036;-71
2021/09/22 00:04:26;;;;;;;0.90;0.68;;;22.80;53.90;;;;;;6292865;28;20032;-72
2021/09/22 00:07:26;;;;;;;0.88;0.60;;;22.80;53.90;;;;;;6291652;28;20166;-71
2021/09/22 00:10:27;;;;;;;0.73;0.50;;;22.80;53.90;;;;;;6291743;28;20055;-71
2021/09/22 00:13:27;;;;;;;0.57;0.40;;;22.80;53.90;;;;;;6292417;28;20418;-71
2021/09/22 00:16:28;;;;;;;0.52;0.40;;;22.80;53.90;;;;;;6268151;28;20056;-71
2021/09/22 00:19:29;;;;;;;0.93;0.57;;;22.80;53.90;;;;;;6280981;28;20479;-71
2021/09/22 00:22:30;;;;;;;1.00;0.63;;;22.80;53.90;;;;;;6292581;28;20044;-71
2021/09/22 00:25:32;;;;;;;0.57;0.50;;;22.80;54.00;;;;;;6292172;28;20047;-71
2021/09/22 00:28:33;;;;;;;1.20;0.63;;;22.80;53.90;;;;;;6291790;28;20024;-71
2021/09/22 00:31:36;;;;;;;0.65;0.47;;;22.80;53.90;;;;;;6291395;28;20029;-71
2021/09/22 00:34:37;;;;;;;0.73;0.52;;;22.80;53.90;;;;;;6291547;28;20113;-71
2021/09/22 00:37:37;;;;;;;1.20;0.50;;;22.80;54.00;;;;;;6291808;28;20024;-71
2021/09/22 00:40:38;;;;;;;0.80;0.60;;;22.80;54.00;;;;;;6291646;28;20032;-71
2021/09/22 00:43:38;;;;;;;1.65;0.60;;;22.80;54.00;;;;;;6291370;28;20029;-71
2021/09/22 00:46:39;;;;;;;0.73;0.60;;;22.80;54.00;;;;;;6291487;28;20511;-71
2021/09/22 00:49:40;;;;;;;1.27;0.73;;;22.80;54.00;;;;;;6290987;28;20021;-71
2021/09/22 00:52:41;;;;;;;0.93;0.60;;;22.80;54.10;;;;;;6291336;28;20495;-71
2021/09/22 00:55:44;;;;;;;1.25;0.68;;;22.80;54.00;;;;;;6290288;28;20100;-71
2021/09/22 00:58:45;;;;;;;1.63;0.80;;;22.80;54.00;;;;;;6291233;28;20025;-71
2021/09/22 01:01:49;;;;;;;0.85;0.60;;;22.80;54.00;;;;;;6291371;28;20078;-71
2021/09/22 01:04:50;;;;;;;1.05;0.50;;;22.80;54.00;;;;;;6290696;28;20558;-71
2021/09/22 01:07:51;;;;;;;2.60;0.77;;;22.80;54.00;;;;;;6290877;28;20036;-71
2021/09/22 01:10:52;;;;;;;0.50;0.40;;;22.80;54.10;;;;;;6291472;28;20046;-71
2021/09/22 01:13:52;;;;;;;0.75;0.47;;;22.80;54.10;;;;;;6287993;28;20412;-71
2021/09/22 01:16:54;;;;;;;0.60;0.45;;;22.80;54.10;;;;;;6285073;28;20056;-71
2021/09/22 01:19:59;;;;;;;0.73;0.45;;;22.80;54.10;;;;;;6290660;28;20472;-71
2021/09/22 01:23:02;;;;;;;0.93;0.40;;;22.80;54.10;;;;;;6290865;28;20040;-71
2021/09/22 01:26:03;;;;;;;0.95;0.50;;;22.80;54.10;;;;;;6290935;28;20471;-71
2021/09/22 01:29:04;;;;;;;1.10;0.60;;;22.80;54.10;;;;;;6290466;28;20029;-71
2021/09/22 01:32:05;;;;;;;1.33;0.60;;;22.80;54.10;;;;;;6290436;28;20017;-71
2021/09/22 01:35:06;;;;;;;0.90;0.50;;;22.80;54.10;;;;;;6290600;28;20157;-71
2021/09/22 01:38:14;;;;;;;0.80;0.65;;;22.80;54.80;;;;;;6290858;28;20099;-71
2021/09/22 01:41:14;;;;;;;0.45;0.40;;;22.80;54.20;;;;;;6290393;28;20384;-71
2021/09/22 01:44:15;;;;;;;0.65;0.47;;;22.80;54.10;;;;;;6290208;28;20079;-71
2021/09/22 01:47:15;;;;;;;1.02;0.60;;;22.80;54.20;;;;;;6290212;28;20124;-71
2021/09/22 01:50:19;;;;;;;1.67;0.60;;;22.80;54.20;;;;;;6289912;28;20103;-71
2021/09/22 01:53:21;;;;;;;0.80;0.52;;;22.80;54.20;;;;;;6290548;28;20073;-71
2021/09/22 01:56:21;;;;;;;0.45;0.40;;;22.80;54.20;;;;;;6290047;28;20384;-71
2021/09/22 01:59:22;;;;;;;0.65;0.50;;;22.80;54.20;;;;;;6288769;28;20032;-71
2021/09/22 02:02:23;;;;;;;0.35;0.35;;;22.80;54.20;;;;;;6290025;28;20104;-71
2021/09/22 02:05:23;;;;;;;0.90;0.55;;;22.80;54.20;;;;;;6290245;28;20025;-71
2021/09/22 02:08:24;;;;;;;1.95;0.50;;;22.80;54.20;;;;;;6289674;28;20411;-71
2021/09/22 02:11:24;;;;;;;2.25;0.50;;;22.80;54.20;;;;;;6290432;28;20043;-71
2021/09/22 02:14:25;;;;;;;1.33;0.60;;;22.80;54.20;;;;;;6282512;28;20032;-71
2021/09/22 02:17:25;;;;;;;0.75;0.55;;;22.80;54.20;;;;;;6288581;28;20028;-71
2021/09/22 02:20:26;;;;;;;0.98;0.47;;;22.80;54.20;;;;;;6290187;28;20780;-71
2021/09/22 02:23:26;;;;;;;0.75;0.40;;;22.80;54.20;;;;;;6290049;28;20052;-71
2021/09/22 02:26:27;;;;;;;1.15;0.68;;;22.80;54.20;;;;;;6289989;28;20067;-71
2021/09/22 02:29:27;;;;;;;0.63;0.50;;;22.80;54.20;;;;;;6289927;28;20060;-71
2021/09/22 02:32:28;;;;;;;0.68;0.50;;;22.80;54.30;;;;;;6289712;28;20043;-71
2021/09/22 02:35:28;;;;;;;0.80;0.60;;;22.80;54.30;;;;;;6289663;28;20172;-71
2021/09/22 02:38:29;;;;;;;0.55;0.50;;;22.80;54.20;;;;;;6289981;28;20055;-71
2021/09/22 02:41:30;;;;;;;0.40;0.40;;;22.80;54.30;;;;;;6290270;28;20403;-71
2021/09/22 02:44:30;;;;;;;1.13;0.68;;;22.80;54.20;;;;;;6290253;28;20043;-71
2021/09/22 02:47:31;;;;;;;1.63;0.60;;;22.80;54.20;;;;;;6289406;28;20032;-71
2021/09/22 02:50:32;;;;;;;0.52;0.47;;;22.80;54.30;;;;;;6287844;28;20025;-71
2021/09/22 02:53:33;;;;;;;0.60;0.50;;;22.80;54.20;;;;;;6289578;28;20503;-71
2021/09/22 02:56:33;;;;;;;0.55;0.50;;;22.80;54.30;;;;;;6292209;28;20495;-71
2021/09/22 02:59:34;;;;;;;2.28;0.70;;;22.80;54.30;;;;;;6294254;28;20063;-72
2021/09/22 03:02:35;;;;;;;2.67;0.60;;;22.80;54.30;;;;;;6293747;28;20119;-71
2021/09/22 03:05:35;;;;;;;1.13;0.40;;;22.80;54.30;;;;;;6293834;28;20028;-71
2021/09/22 03:08:38;;;;;;;0.85;0.50;;;22.80;54.30;;;;;;6293769;28;20059;-71
2021/09/22 03:11:38;;;;;;;1.38;0.57;;;22.80;54.30;;;;;;6294007;28;20046;-71
2021/09/22 03:14:39;;;;;;;0.75;0.60;;;22.80;54.30;;;;;;6284481;28;20021;-71
2021/09/22 03:17:40;;;;;;;1.05;0.47;;;22.80;54.30;;;;;;6270569;28;20139;-71
2021/09/22 03:20:40;;;;;;;1.30;0.55;;;22.80;54.30;;;;;;6293288;28;20059;-71
2021/09/22 03:23:41;;;;;;;1.38;0.73;;;22.80;54.30;;;;;;6293154;28;20487;-71
2021/09/22 03:26:42;;;;;;;0.43;0.30;;;22.80;54.30;;;;;;6293996;28;20025;-70
2021/09/22 03:29:42;;;;;;;0.68;0.40;;;22.80;54.30;;;;;;6293069;28;20115;-71
2021/09/22 03:32:43;;;;;;;1.13;0.50;;;22.80;54.30;;;;;;6293486;28;20060;-71
2021/09/22 03:35:44;;;;;;;1.35;0.60;;;22.80;54.30;;;;;;6293906;28;20048;-71
2021/09/22 03:38:45;;;;;;;0.50;0.50;;;22.80;54.30;;;;;;6293388;28;20024;-71
2021/09/22 03:41:45;;;;;;;1.52;0.60;;;22.80;54.30;;;;;;6292783;28;20032;-71
2021/09/22 03:44:46;;;;;;;1.30;0.65;;;22.80;54.30;;;;;;6293371;28;20074;-71
2021/09/22 03:47:47;;;;;;;0.85;0.40;;;22.80;54.30;;;;;;6293111;28;20547;-71
2021/09/22 03:50:48;;;;;;;0.65;0.55;;;22.80;54.30;;;;;;6292660;28;20027;-72
2021/09/22 03:53:49;;;;;;;1.30;0.63;;;22.80;54.80;;;;;;6292681;28;20032;-71
2021/09/22 03:56:49;;;;;;;1.20;0.50;;;22.80;54.40;;;;;;6292815;28;20017;-71
2021/09/22 04:00:43;;;;;;;1.40;0.40;;;22.80;54.40;;;;;;6292232;28;20028;-71
2021/09/22 04:03:43;;;;;;;0.57;0.50;;;22.80;54.40;;;;;;6292685;28;20090;-70
2021/09/22 04:06:44;;;;;;;2.30;0.50;;;22.80;54.40;;;;;;6292833;28;20509;-70
2021/09/22 04:09:44;;;;;;;1.33;0.70;;;22.80;54.40;;;;;;6290615;28;20106;-71
2021/09/22 04:12:45;;;;;;;0.40;0.40;;;22.80;54.40;;;;;;6292773;28;20028;-71
2021/09/22 04:15:45;;;;;;;1.70;0.60;;;22.80;54.40;;;;;;6284883;28;20028;-71
2021/09/22 04:18:46;;;;;;;1.15;0.52;;;22.70;54.40;;;;;;6292121;28;20055;-71
2021/09/22 04:21:46;;;;;;;1.50;0.57;;;22.80;54.40;;;;;;6292141;28;20172;-71
2021/09/22 04:24:47;;;;;;;1.23;0.60;;;22.80;54.40;;;;;;6292264;28;20037;-71
2021/09/22 04:27:47;;;;;;;1.63;0.70;;;22.80;54.40;;;;;;6292293;28;20128;-71
2021/09/22 04:30:48;;;;;;;1.00;0.50;;;22.70;54.40;;;;;;6291796;28;20395;-71
2021/09/22 04:33:49;;;;;;;1.67;0.70;;;22.80;54.40;;;;;;6292167;28;20025;-72
2021/09/22 04:36:49;;;;;;;0.73;0.38;;;22.80;54.40;;;;;;6292102;28;20028;-71
2021/09/22 04:39:52;;;;;;;1.60;0.60;;;22.80;54.40;;;;;;6291563;28;20434;-71
2021/09/22 04:42:52;;;;;;;0.60;0.47;;;22.80;54.40;;;;;;6290545;28;20039;-72
2021/09/22 04:45:53;;;;;;;1.10;0.50;;;22.80;54.40;;;;;;6291390;28;20028;-71
2021/09/22 04:48:53;;;;;;;0.38;0.30;;;22.80;54.40;;;;;;6291367;28;20032;-71
2021/09/22 04:51:54;;;;;;;1.52;0.50;;;22.80;54.40;;;;;;6291318;28;20044;-71
2021/09/22 04:54:54;;;;;;;0.70;0.50;;;22.80;54.40;;;;;;6291300;28;20472;-71
2021/09/22 04:57:55;;;;;;;3.33;0.60;;;22.80;54.40;;;;;;6291671;28;20111;-71
2021/09/22 05:01:01;;;;;;;0.93;0.50;;;22.80;54.50;;;;;;6288660;28;20040;-71
2021/09/22 05:04:01;;;;;;;1.38;0.70;;;22.80;54.50;;;;;;6266898;28;20036;-72
2021/09/22 05:07:02;;;;;;;1.58;0.50;;;22.80;54.50;;;;;;6287216;28;20035;-72
2021/09/22 05:10:03;;;;;;;2.15;0.50;;;22.80;54.50;;;;;;6291256;28;20764;-72
2021/09/22 05:13:03;;;;;;;1.00;0.50;;;22.80;54.50;;;;;;6290848;28;20039;-72
2021/09/22 05:16:04;;;;;;;0.70;0.50;;;22.80;54.50;;;;;;6277772;28;20483;-71
2021/09/22 05:19:06;;;;;;;0.82;0.52;;;22.80;54.50;;;;;;6290226;28;20060;-71
2021/09/22 05:22:07;;;;;;;0.65;0.43;;;22.80;54.50;;;;;;6290843;28;20039;-72
2021/09/22 05:25:07;;;;;;;1.08;0.40;;;22.70;54.40;;;;;;6290811;28;20029;-71
2021/09/22 05:28:08;;;;;;;1.23;0.50;;;22.80;54.50;;;;;;6290390;28;20023;-71
2021/09/22 05:31:08;;;;;;;1.20;0.38;;;22.80;54.50;;;;;;6290290;28;20029;-72
2021/09/22 05:34:10;;;;;;;1.45;0.50;;;22.80;54.50;;;;;;6290998;28;20028;-72
2021/09/22 05:37:10;;;;;;;0.98;0.60;;;22.80;54.40;;;;;;6290586;28;20085;-72
2021/09/22 05:40:11;;;;;;;1.23;0.43;;;22.80;54.50;;;;;;6290634;28;20469;-72
2021/09/22 05:43:11;;;;;;;0.32;0.30;;;22.80;54.50;;;;;;6290210;28;20028;-71
2021/09/22 05:46:12;;;;;;;0.90;0.43;;;22.80;54.40;;;;;;6290313;28;20025;-71
2021/09/22 05:49:13;;;;;;;0.98;0.52;;;22.80;54.40;;;;;;6289999;28;20561;-72
2021/09/22 05:52:13;;;;;;;1.23;0.50;;;22.80;54.40;;;;;;6290739;28;20025;-71
2021/09/22 05:55:14;;;;;;;0.98;0.68;;;22.80;54.30;;;;;;6290477;28;20443;-72
2021/09/22 05:58:16;;;;;;;1.13;0.60;;;22.80;54.30;;;;;;6290459;28;20426;-71
2021/09/22 06:01:17;;;;;;;1.17;0.55;;;22.80;54.30;;;;;;6284706;28;20044;-71
2021/09/22 06:04:17;;;;;;;1.38;0.50;;;22.80;54.30;;;;;;6293059;28;20040;-71
2021/09/22 06:07:18;;;;;;;2.10;0.80;;;22.80;54.30;;;;;;6293023;28;20036;-71
2021/09/22 06:10:18;;;;;;;1.38;0.75;;;22.80;54.40;;;;;;6292832;28;20487;-72
2021/09/22 06:13:19;;;;;;;0.70;0.50;;;22.80;54.30;;;;;;6293068;28;20545;-71
2021/09/22 06:16:25;;;;;;;1.63;0.70;;;22.80;54.30;;;;;;6269877;28;20021;-71
2021/09/22 06:19:25;;;;;;;1.15;0.50;;;22.80;54.30;;;;;;6292494;28;20452;-71
2021/09/22 06:22:26;;;;;;;1.50;0.60;;;22.80;54.40;;;;;;6292218;28;20041;-71
2021/09/22 06:25:26;;;;;;;1.08;0.63;;;22.80;54.40;;;;;;6293462;28;20028;-72
2021/09/22 06:28:27;;;;;;;1.08;0.70;;;22.80;55.10;;;;;;6292744;28;20031;-72
2021/09/22 06:31:27;;;;;;;2.35;1.05;;;22.80;54.40;;;;;;6295693;28;20036;-71
2021/09/22 06:34:28;;;;;;;1.50;0.57;;;22.80;54.40;;;;;;6297266;28;20078;-71
2021/09/22 06:37:29;;;;;;;2.08;0.82;;;22.80;54.40;;;;;;6297551;28;20249;-71
2021/09/22 06:40:29;;;;;;;1.45;0.52;;;22.80;54.40;;;;;;6297860;28;20415;-71
2021/09/22 06:43:30;;;;;;;1.48;0.55;;;22.80;54.40;;;;;;6297521;28;20040;-71
2021/09/22 06:46:32;;;;;;;1.27;0.80;;;22.80;54.40;;;;;;6297261;28;20028;-71
2021/09/22 06:49:32;;;;;;;1.65;0.80;;;22.80;54.40;;;;;;6297224;28;20494;-71
2021/09/22 06:52:34;;;;;;;1.50;0.63;;;22.80;54.50;;;;;;6285441;28;20025;-70
2021/09/22 06:55:35;;;;;;;1.17;0.60;;;22.80;54.40;;;;;;6287759;28;20024;-71
2021/09/22 06:58:36;;;;;;;3.13;0.80;;;22.80;54.70;;;;;;6294951;28;20060;-72
2021/09/22 07:01:36;;;;;;;3.17;1.15;;;22.70;54.90;;;;;;6295537;28;20036;-71
2021/09/22 07:04:37;;;;;;;13.75;2.60;;;22.80;54.00;;;;;;6291986;28;20373;-71
2021/09/22 07:07:39;;;;;;;12.57;2.08;;;22.70;53.80;;;;;;6294576;28;20025;-70
2021/09/22 07:10:40;;;;;;;8.10;1.92;;;22.80;54.00;;;;;;6289806;28;20126;-71
2021/09/22 07:13:40;;;;;;;12.23;2.40;;;22.70;54.10;;;;;;6292573;28;20497;-71
2021/09/22 07:16:41;;;;;;;9.77;2.13;;;22.80;54.30;;;;;;6271661;28;20043;-71
2021/09/22 07:19:41;;;;;;;7.88;2.00;;;22.80;54.30;;;;;;6294522;28;20082;-71
2021/09/22 07:22:42;;;;;;;8.05;1.75;;;22.80;54.40;;;;;;6294832;28;20032;-71
2021/09/22 07:25:43;;;;;;;9.85;2.15;;;22.80;54.40;;;;;;6293209;28;20535;-71
2021/09/22 07:28:43;;;;;;;7.78;1.83;;;22.80;54.40;;;;;;6294417;28;20418;-70
2021/09/22 07:31:44;;;;;;;7.82;2.10;;;22.80;54.60;;;;;;6294525;28;20098;-72
2021/09/22 07:34:44;;;;;;;15.48;2.30;;;22.80;54.60;;;;;;6294209;28;20562;-71
2021/09/22 07:37:46;;;;;;;13.48;2.30;;;22.80;54.80;;;;;;6278103;28;20029;-72
2021/09/22 07:40:46;;;;;;;10.93;1.60;;;22.80;54.80;;;;;;6290462;28;20033;-71
2021/09/22 07:43:47;;;;;;;17.98;1.70;;;22.80;54.80;;;;;;6293600;28;20051;-71
2021/09/22 07:46:47;;;;;;;10.75;1.92;;;22.90;54.90;;;;;;6293706;28;20029;-72
2021/09/22 07:49:49;;;;;;;9.10;1.70;;;22.90;55.00;;;;;;6281543;28;20115;-70
2021/09/22 07:52:50;;;;;;;26.08;2.53;;;22.90;55.00;;;;;;6294134;28;20032;-71
2021/09/22 07:55:50;;;;;;;9.30;1.77;;;22.80;55.20;;;;;;6293590;28;20025;-71
2021/09/22 07:58:51;;;;;;;16.65;2.50;;;22.90;55.70;;;;;;6293043;28;20033;-71
2021/09/22 08:01:51;;;;;;;14.50;2.08;;;22.90;55.90;;;;;;6294083;28;20021;-71
2021/09/22 08:04:52;;;;;;;11.70;1.90;;;22.90;56.20;;;;;;6292628;28;20525;-70
2021/09/22 08:07:53;;;;;;;16.38;2.20;;;22.90;56.30;;;;;;6278335;28;20025;-71
2021/09/22 08:10:53;;;;;;;15.85;2.30;;;22.90;57.00;;;;;;6293682;28;20035;-70
2021/09/22 08:13:54;;;;;;;6.43;1.45;;;22.90;56.40;;;;;;6290998;28;20549;-71
2021/09/22 08:16:58;;;;;;;14.70;1.90;;;22.90;56.00;;;;;;6290092;28;20028;-71
2021/09/22 08:19:58;;;;;;;15.73;2.90;;;22.90;56.20;;;;;;6293176;28;20455;-71
2021/09/22 08:22:59;;;;;;;21.63;3.10;;;22.90;55.90;;;;;;6293581;28;20036;-71
2021/09/22 08:26:00;;;;;;;21.88;3.70;;;22.90;55.10;;;;;;6293152;28;20077;-71
2021/09/22 08:29:00;;;;;;;18.75;2.97;;;22.90;55.30;;;;;;6292770;28;20077;-71
2021/09/22 08:32:01;;;;;;;17.67;2.85;;;22.90;55.20;;;;;;6292772;28;20082;-71
2021/09/22 08:35:02;;;;;;;14.98;3.17;;;22.80;55.30;;;;;;6292335;28;20036;-71
2021/09/22 08:38:03;;;;;;;12.40;3.03;;;22.90;55.40;;;;;;6274311;28;20326;-71
2021/09/22 08:41:04;;;;;;;21.00;3.08;;;22.80;55.30;;;;;;6287446;28;20031;-71
2021/09/22 08:44:05;;;;;;;16.10;2.75;;;22.80;55.30;;;;;;6292469;28;20399;-71
2021/09/22 08:47:06;;;;;;;13.23;2.72;;;22.80;55.30;;;;;;6289384;28;20041;-70
2021/09/22 08:50:07;;;;;;;11.98;2.80;;;22.80;55.30;;;;;;6286738;28;20078;-71
2021/09/22 08:53:07;;;;;;;8.43;2.33;;;22.80;55.30;;;;;;6292491;28;20086;-71
2021/09/22 08:56:11;;;;;;;9.10;2.45;;;22.80;55.30;;;;;;6292321;28;20036;-72
2021/09/22 08:59:14;;;;;;;7.75;2.22;;;22.80;55.20;;;;;;6292015;28;20035;-71
2021/09/22 09:02:19;;;;;;;9.95;2.97;;;22.80;55.20;;;;;;6293219;28;20094;-71
2021/09/22 09:05:21;;;;;;;11.90;2.45;;;22.80;55.20;;;;;;6290851;28;20031;-71
2021/09/22 09:08:21;;;;;;;9.15;2.17;;;22.80;55.20;;;;;;6291381;28;20316;-70
2021/09/22 09:11:29;;;;;;;6.80;2.13;;;22.80;55.10;;;;;;6292413;28;20471;-71
2021/09/22 09:14:34;;;;;;;5.72;2.05;;;22.80;55.20;;;;;;6284045;28;20131;-71
2021/09/22 09:17:47;;;;;;;8.38;2.28;;;22.80;55.20;;;;;;6282573;28;20328;-70
2021/09/22 09:20:50;;;;;;;6.88;1.85;;;22.80;55.10;;;;;;6291867;28;20116;-70
2021/09/22 09:23:55;;;;;;;7.78;2.05;;;22.80;55.00;;;;;;6269260;28;20032;-71
2021/09/22 09:26:55;;;;;;;15.45;3.67;;;22.80;55.00;;;;;;6291785;28;20024;-69
2021/09/22 09:29:57;;;;;;;21.58;3.80;;;22.80;54.90;;;;;;6288881;28;20067;-71
2021/09/22 09:32:57;;;;;;;13.80;3.75;;;22.80;55.00;;;;;;6290883;28;20132;-71
2021/09/22 09:36:00;;;;;;;21.40;4.18;;;22.80;54.80;;;;;;6289523;28;20381;-70
2021/09/22 09:39:06;;;;;;;15.70;3.50;;;22.80;54.80;;;;;;6289650;28;20036;-70
2021/09/22 09:42:07;;;;;;;15.40;3.67;;;22.90;54.80;;;;;;6291532;28;20032;-70
2021/09/22 09:45:09;;;;;;;14.35;3.20;;;22.80;54.80;;;;;;6291843;28;20078;-71
2021/09/22 09:48:12;;;;;;;11.45;3.45;;;22.90;55.00;;;;;;6279752;28;20112;-71
2021/09/22 09:51:12;;;;;;;10.77;3.00;;;22.90;55.00;;;;;;6285163;28;20685;-70
2021/09/22 09:54:39;;;;;;;14.73;3.20;;;22.90;55.00;;;;;;6290704;28;20024;-70
2021/09/22 09:57:47;;;;;;;13.57;2.97;;;22.80;54.90;;;;;;6289734;28;20059;-70
2021/09/22 10:00:50;;;;;;;9.57;3.20;;;22.90;55.00;;;;;;6288166;28;20082;-70
2021/09/22 10:03:50;;;;;;;12.73;3.50;;;22.80;55.00;;;;;;6283798;28;20106;-70
2021/09/22 10:06:52;;;;;;;8.93;2.63;;;22.80;55.00;;;;;;6300221;28;20524;-70
2021/09/22 10:09:53;;;;;;;8.60;2.70;;;22.80;55.10;;;;;;6298769;28;20078;-70
2021/09/22 10:12:54;;;;;;;12.60;2.75;;;22.90;55.30;;;;;;6300039;28;20028;-71
2021/09/22 10:15:55;;;;;;;11.48;2.75;;;22.80;55.20;;;;;;6281746;28;20507;-71
2021/09/22 10:18:57;;;;;;;11.32;2.85;;;22.90;55.30;;;;;;6299278;28;20028;-70
2021/09/22 10:21:58;;;;;;;7.65;2.53;;;22.90;55.30;;;;;;6299371;28;20039;-71
2021/09/22 10:24:59;;;;;;;9.48;2.65;;;22.80;55.30;;;;;;6299285;28;20036;-71
2021/09/22 10:28:00;;;;;;;7.10;2.30;;;22.90;55.40;;;;;;6299605;28;20388;-71
2021/09/22 10:31:01;;;;;;;9.05;2.40;;;22.80;55.30;;;;;;6299242;28;20078;-70
2021/09/22 10:34:03;;;;;;;8.98;2.60;;;22.90;55.50;;;;;;6299523;28;20028;-71
2021/09/22 10:37:25;;;;;;;11.38;2.65;;;22.80;55.30;;;;;;6289488;28;20037;-71
2021/09/22 10:40:35;;;;;;;16.02;3.15;;;22.80;55.40;;;;;;6298686;28;20031;-70
2021/09/22 10:43:40;;;;;;;9.48;1.92;;;22.90;55.60;;;;;;6298019;28;20411;-71
2021/09/22 10:46:41;;;;;;;9.13;2.50;;;22.90;55.60;;;;;;6299703;28;20074;-70
2021/09/22 10:49:41;;;;;;;9.15;2.33;;;22.80;55.70;;;;;;6298449;28;20060;-71
2021/09/22 10:52:42;;;;;;;10.77;2.22;;;22.80;55.50;;;;;;6293261;28;20028;-71
2021/09/22 10:56:09;;;;;;;6.22;2.30;;;22.80;55.60;;;;;;6287883;28;20033;-70
2021/09/22 10:59:25;;;;;;;11.32;2.80;;;22.80;55.60;;;;;;6296936;28;20028;-70
2021/09/22 11:02:44;;;;;;;12.70;2.47;;;22.80;55.60;;;;;;6273206;28;20044;-70
2021/09/22 11:05:45;;;;;;;7.63;2.60;;;22.80;55.60;;;;;;6295622;28;20040;-70
2021/09/22 11:09:07;;;;;;;6.55;2.03;;;22.80;55.60;;;;;;6283696;28;20712;-69
2021/09/22 11:12:10;;;;;;;5.40;2.17;;;22.80;55.60;;;;;;6273518;28;20032;-70
2021/09/22 11:15:11;;;;;;;15.60;2.97;;;22.80;55.60;;;;;;6285180;28;20078;-71
2021/09/22 11:18:12;;;;;;;5.55;1.67;;;22.80;55.60;;;;;;6280033;28;20428;-70
2021/09/22 11:21:17;;;;;;;4.80;1.85;;;22.90;55.70;;;;;;6283203;28;20039;-71
2021/09/22 11:24:21;;;;;;;11.95;2.47;;;22.80;55.60;;;;;;6291568;28;20097;-71
2021/09/22 11:27:23;;;;;;;9.63;2.03;;;22.80;55.60;;;;;;6286553;28;20040;-71
2021/09/22 11:30:27;;;;;;;6.63;1.60;;;22.80;55.60;;;;;;6283893;28;20025;-71
2021/09/22 11:33:28;;;;;;;6.88;1.90;;;22.90;55.70;;;;;;6270183;28;20506;-70
2021/09/22 11:36:29;;;;;;;6.85;2.05;;;22.80;55.70;;;;;;6280457;28;20025;-70
2021/09/22 11:39:30;;;;;;;6.88;1.77;;;22.80;55.60;;;;;;6279604;28;20059;-70
2021/09/22 11:42:30;;;;;;;6.40;1.90;;;22.80;55.60;;;;;;6275518;28;20097;-70
2021/09/22 11:45:37;;;;;;;4.63;1.42;;;22.80;55.60;;;;;;6291130;28;20031;-70
2021/09/22 11:48:39;;;;;;;4.18;1.60;;;22.90;55.70;;;;;;6293918;28;20308;-71
2021/09/22 11:51:40;;;;;;;5.18;1.60;;;22.90;56.30;;;;;;6292310;28;20025;-70
2021/09/22 11:54:58;;;;;;;4.38;1.40;;;22.90;55.40;;;;;;6292204;28;20518;-70
2021/09/22 11:58:07;;;;;;;4.38;1.80;;;22.90;55.50;;;;;;6297690;28;20034;-70
2021/09/22 12:01:08;;;;;;;7.30;1.67;;;22.90;55.50;;;;;;6292915;28;20013;-71
2021/09/22 12:04:09;;;;;;;4.68;2.08;;;22.90;55.60;;;;;;6297582;28;20040;-71
2021/09/22 12:07:11;;;;;;;4.70;1.73;;;22.90;55.70;;;;;;6292570;28;20073;-71
2021/09/22 12:10:12;;;;;;;7.78;1.60;;;22.90;55.70;;;;;;6288736;28;20059;-71
2021/09/22 12:13:13;;;;;;;5.35;1.65;;;22.90;55.70;;;;;;6292110;28;20028;-71
2021/09/22 12:16:17;;;;;;;4.38;1.50;;;22.90;55.80;;;;;;6281415;28;20036;-70
2021/09/22 12:19:18;;;;;;;4.22;1.55;;;22.90;55.80;;;;;;6292617;28;20047;-70
2021/09/22 12:22:23;;;;;;;4.10;1.50;;;22.90;55.80;;;;;;6291399;28;20095;-70
2021/09/22 12:25:24;;;;;;;3.20;1.55;;;22.90;55.80;;;;;;6291104;28;20397;-70
2021/09/22 12:28:25;;;;;;;6.40;1.58;;;22.90;55.90;;;;;;6291619;28;20020;-71
2021/09/22 12:31:25;;;;;;;3.97;1.25;;;22.90;55.80;;;;;;6286972;28;20021;-70
2021/09/22 12:34:27;;;;;;;8.93;1.83;;;22.90;55.80;;;;;;6291098;28;20024;-71
2021/09/22 12:37:30;;;;;;;6.57;1.40;;;22.90;55.80;;;;;;6278120;28;20090;-71
2021/09/22 12:40:43;;;;;;;4.75;1.63;;;22.90;55.80;;;;;;6285839;28;20036;-71
2021/09/22 12:43:44;;;;;;;3.33;1.27;;;22.90;55.80;;;;;;6291741;28;20032;-70
2021/09/22 12:46:48;;;;;;;3.80;1.48;;;22.90;55.80;;;;;;6289901;28;20027;-69
2021/09/22 12:50:09;;;;;;;3.35;1.73;;;22.90;55.80;;;;;;6291661;28;20040;-70
2021/09/22 12:53:12;;;;;;;5.72;1.60;;;22.90;55.80;;;;;;6291640;28;20036;-71
2021/09/22 12:56:15;;;;;;;10.00;2.42;;;22.90;55.70;;;;;;6286105;28;20021;-71
2021/09/22 12:59:27;;;;;;;10.75;2.30;;;22.90;55.20;;;;;;6290514;28;20415;-70
2021/09/22 13:02:27;;;;;;;13.35;3.22;;;22.80;54.80;;;;;;6286670;28;20021;-71
2021/09/22 13:05:38;;;;;;;13.65;3.63;;;22.80;53.70;;;;;;6291291;28;20505;-70
2021/09/22 13:09:05;;;;;;;14.57;3.70;;;22.80;53.40;;;;;;6289893;28;20612;-70
2021/09/22 13:12:06;;;;;;;13.73;3.53;;;22.80;53.30;;;;;;6288520;28;20028;-70
2021/09/22 13:15:22;;;;;;;11.70;3.22;;;22.80;53.10;;;;;;6278457;28;20032;-71
2021/09/22 13:18:23;;;;;;;11.15;2.58;;;22.80;53.10;;;;;;6288660;28;20024;-71
2021/09/22 13:21:24;;;;;;;14.20;3.33;;;22.80;53.20;;;;;;6291610;28;20021;-70
2021/09/22 13:24:26;;;;;;;18.25;4.40;;;22.80;53.00;;;;;;6289296;28;20484;-70
2021/09/22 13:27:27;;;;;;;20.05;4.20;;;22.80;52.70;;;;;;6297160;28;20037;-70
2021/09/22 13:30:27;;;;;;;15.48;3.75;;;22.80;52.50;;;;;;6290096;28;20483;-70
2021/09/22 13:33:29;;;;;;;12.27;3.28;;;22.80;52.90;;;;;;6274614;28;20422;-71
2021/09/22 13:36:30;;;;;;;8.90;2.65;;;22.80;53.60;;;;;;6269687;28;20043;-70
2021/09/22 13:39:31;;;;;;;11.20;2.92;;;22.80;53.20;;;;;;6284217;28;20028;-70
2021/09/22 13:42:31;;;;;;;11.95;2.92;;;22.80;53.00;;;;;;6290533;28;20110;-72
2021/09/22 13:45:32;;;;;;;13.20;3.83;;;22.80;53.20;;;;;;6295907;28;20112;-71
2021/09/22 13:48:33;;;;;;;10.43;2.70;;;22.80;52.90;;;;;;6284211;28;20305;-70
2021/09/22 13:51:33;;;;;;;13.65;3.72;;;22.80;53.20;;;;;;6290848;28;20415;-70
2021/09/22 13:54:34;;;;;;;14.45;3.65;;;22.80;52.50;;;;;;6290584;28;20032;-70
2021/09/22 13:57:34;;;;;;;13.38;3.47;;;22.80;52.60;;;;;;6289834;28;20649;-71
2021/09/22 14:00:35;;;;;;;12.80;3.13;;;22.80;52.70;;;;;;6289335;28;20039;-70
2021/09/22 14:03:36;;;;;;;11.95;3.20;;;22.80;52.80;;;;;;6289474;28;20036;-70
2021/09/22 14:06:37;;;;;;;12.88;3.50;;;22.80;53.00;;;;;;6291027;28;20116;-71
2021/09/22 14:09:37;;;;;;;11.52;3.05;;;22.80;53.20;;;;;;6289294;28;20139;-71
2021/09/22 14:12:38;;;;;;;14.65;4.03;;;22.80;53.30;;;;;;6289204;28;20029;-70
2021/09/22 14:15:41;;;;;;;10.25;2.75;;;22.80;53.40;;;;;;6278552;28;20029;-70
2021/09/22 14:18:41;;;;;;;11.68;2.90;;;22.80;53.50;;;;;;6289362;28;20025;-71
2021/09/22 14:21:45;;;;;;;7.82;2.45;;;22.80;53.60;;;;;;6289330;28;20027;-70
2021/09/22 14:24:45;;;;;;;7.63;2.83;;;22.80;53.80;;;;;;6286242;28;20079;-70
2021/09/22 14:27:47;;;;;;;11.63;2.83;;;22.80;53.90;;;;;;6290405;28;20511;-70
2021/09/22 14:30:48;;;;;;;12.70;2.53;;;22.80;54.00;;;;;;6290253;28;20025;-70
2021/09/22 14:33:48;;;;;;;10.95;2.88;;;22.80;54.00;;;;;;6289558;28;20028;-70
2021/09/22 14:36:49;;;;;;;11.30;2.80;;;22.90;54.10;;;;;;6276590;28;20056;-70
2021/09/22 14:39:49;;;;;;;11.00;2.58;;;22.90;54.20;;;;;;6289165;28;20056;-70
2021/09/22 14:42:50;;;;;;;15.05;2.85;;;22.90;54.20;;;;;;6289622;28;20107;-70
2021/09/22 14:45:51;;;;;;;10.20;2.70;;;22.80;54.00;;;;;;6289574;28;20107;-70
2021/09/22 14:48:51;;;;;;;17.20;4.03;;;22.80;53.90;;;;;;6289790;28;20071;-70
2021/09/22 14:51:52;;;;;;;10.40;3.20;;;22.80;52.90;;;;;;6285104;28;20074;-70
2021/09/22 14:54:52;;;;;;;11.80;3.15;;;22.80;52.60;;;;;;6294759;28;20078;-71
2021/09/22 14:57:53;;;;;;;15.40;3.50;;;22.80;52.60;;;;;;6293547;28;20060;-71
2021/09/22 15:00:53;;;;;;;10.45;3.40;;;22.80;52.50;;;;;;6293022;28;20084;-70
2021/09/22 15:03:54;;;;;;;18.08;6.57;;;22.80;52.20;;;;;;6291778;28;20036;-71
2021/09/22 15:06:55;;;;;;;18.17;6.07;;;22.80;52.20;;;;;;6289465;28;20044;-71
2021/09/22 15:09:56;;;;;;;13.25;4.07;;;22.80;52.30;;;;;;6292121;28;20056;-70
2021/09/22 15:12:56;;;;;;;15.63;4.35;;;22.80;52.30;;;;;;6294713;28;20490;-70
2021/09/22 15:15:57;;;;;;;13.07;4.05;;;22.80;52.10;;;;;;6290586;28;20540;-70
2021/09/22 15:18:57;;;;;;;17.73;4.50;;;22.80;51.90;;;;;;6294350;28;20387;-71
2021/09/22 15:21:58;;;;;;;13.45;3.42;;;22.80;51.90;;;;;;6293578;28;20067;-70
2021/09/22 15:24:58;;;;;;;15.95;3.92;;;22.80;52.80;;;;;;6292584;28;20107;-71
2021/09/22 15:27:59;;;;;;;11.30;3.45;;;22.80;52.90;;;;;;6292587;28;20111;-71
2021/09/22 15:31:00;;;;;;;18.10;4.28;;;22.70;53.10;;;;;;6293758;28;20070;-71
2021/09/22 15:34:03;;;;;;;7.53;3.05;;;22.70;52.80;;;;;;6293562;28;20028;-71
2021/09/22 15:37:04;;;;;;;14.00;4.07;;;22.70;52.90;;;;;;6283071;28;20021;-71
2021/09/22 15:40:08;;;;;;;13.68;3.90;;;22.80;53.00;;;;;;6280671;28;20064;-71
2021/09/22 15:43:08;;;;;;;16.52;4.13;;;22.70;52.40;;;;;;6292795;28;20060;-70